Time;durP1;ratioP1;P1;durP2;ratioP2;P2;SDS_P1;SDS_P2;PMS_P1;PMS_P2;Temp;Humidity;BMP_temperature;BMP_pressure;BME280_temperature;BME280_humidity;BME280_pressure;Samples;Min_cycle;Max_cycle;Signal;HPM_P1;HPM_P2
2022/11/04 00:01:56;;;;;;;3.38;1.63;;;16.70;83.90;;;;;;5136432;27;20136;-76
2022/11/04 00:04:24;;;;;;;2.67;1.50;;;16.80;83.90;;;;;;5130920;28;20110;-75
2022/11/04 00:06:51;;;;;;;3.42;1.80;;;16.70;83.80;;;;;;5132473;28;20020;-75
2022/11/04 00:09:22;;;;;;;3.85;1.70;;;16.70;83.80;;;;;;5143610;27;20075;-76
2022/11/04 00:14:33;;;;;;;3.95;2.00;;;16.70;83.90;;;;;;5151634;27;20037;-78
2022/11/04 00:17:18;;;;;;;3.53;1.90;;;16.70;84.10;;;;;;5144362;27;20045;-76
2022/11/04 00:28:44;;;;;;;3.88;1.50;;;16.60;84.20;;;;;;5152839;27;20104;-75
2022/11/04 00:33:56;;;;;;;3.42;1.60;;;16.60;84.30;;;;;;5142153;27;20109;-75
2022/11/04 00:36:23;;;;;;;3.05;1.60;;;16.60;84.30;;;;;;5133388;27;20440;-75
2022/11/04 00:38:49;;;;;;;2.38;1.52;;;16.70;84.30;;;;;;5142479;27;20026;-76
2022/11/04 00:41:27;;;;;;;3.05;1.73;;;16.60;84.30;;;;;;5137798;27;20030;-76
2022/11/04 00:44:02;;;;;;;3.60;1.70;;;16.60;84.30;;;;;;5149344;27;20023;-77
2022/11/04 00:46:30;;;;;;;2.38;1.42;;;16.60;84.40;;;;;;5140720;27;20019;-76
2022/11/04 00:48:56;;;;;;;2.65;1.52;;;16.60;84.50;;;;;;5133116;27;20022;-75
2022/11/04 00:51:21;;;;;;;3.45;1.80;;;16.60;84.50;;;;;;5138573;27;20023;-76
2022/11/04 00:53:48;;;;;;;2.70;1.50;;;16.60;84.40;;;;;;5146327;27;20027;-77
2022/11/04 00:56:13;;;;;;;2.95;1.80;;;16.60;84.20;;;;;;5154568;27;20397;-78
2022/11/04 00:58:39;;;;;;;2.92;1.50;;;16.70;84.30;;;;;;5135574;27;20023;-75
2022/11/04 01:01:09;;;;;;;4.18;1.70;;;16.70;84.30;;;;;;5145175;27;20106;-75
2022/11/04 01:03:35;;;;;;;3.38;1.60;;;16.70;84.20;;;;;;5154408;27;20027;-75
2022/11/04 01:06:00;;;;;;;3.15;1.50;;;16.70;84.20;;;;;;5139742;27;20067;-76
2022/11/04 01:08:26;;;;;;;2.97;1.60;;;16.70;84.20;;;;;;5136310;27;20015;-75
2022/11/04 01:10:51;;;;;;;3.38;1.80;;;16.70;84.10;;;;;;5143000;27;20098;-71
2022/11/04 01:13:17;;;;;;;3.67;1.58;;;16.70;84.30;;;;;;5152153;27;20508;-71
2022/11/04 01:15:42;;;;;;;2.97;1.50;;;16.70;84.30;;;;;;5143970;27;20031;-75
2022/11/04 01:18:08;;;;;;;2.85;1.50;;;16.70;84.40;;;;;;5136172;27;20027;-75
2022/11/04 01:20:33;;;;;;;3.28;1.65;;;16.70;84.40;;;;;;5141025;27;20366;-75
2022/11/04 01:22:59;;;;;;;2.53;1.40;;;16.60;84.50;;;;;;5155367;27;20026;-75
2022/11/04 01:25:24;;;;;;;2.25;1.27;;;16.60;84.50;;;;;;5155844;27;20023;-74
2022/11/04 01:27:50;;;;;;;2.90;1.40;;;16.60;84.70;;;;;;5154969;27;20504;-73
2022/11/04 01:30:15;;;;;;;2.97;1.60;;;16.60;84.70;;;;;;5155058;27;20011;-76
2022/11/04 01:32:41;;;;;;;2.42;1.35;;;16.60;84.80;;;;;;5155045;27;20057;-76
2022/11/04 01:35:07;;;;;;;2.50;1.30;;;16.60;84.80;;;;;;5154633;27;20027;-76
2022/11/04 01:37:34;;;;;;;2.38;1.38;;;16.60;84.90;;;;;;5148648;27;20448;-75
2022/11/04 01:39:59;;;;;;;3.65;1.50;;;16.60;84.90;;;;;;5134152;27;20046;-76
2022/11/04 01:42:25;;;;;;;2.65;1.48;;;16.60;84.90;;;;;;5139015;27;20493;-76
2022/11/04 01:44:54;;;;;;;2.83;1.50;;;16.60;84.90;;;;;;5154616;27;20026;-78
2022/11/04 01:47:25;;;;;;;2.83;1.60;;;16.60;84.90;;;;;;5144198;27;20031;-75
2022/11/04 01:49:56;;;;;;;2.45;1.50;;;16.60;84.90;;;;;;5155975;27;20023;-73
2022/11/04 01:52:40;;;;;;;2.17;1.40;;;16.60;84.90;;;;;;5154118;27;20033;-76
2022/11/04 01:55:11;;;;;;;2.90;1.58;;;16.60;84.90;;;;;;5156049;27;20026;-76
2022/11/04 01:57:40;;;;;;;2.75;1.60;;;16.60;84.90;;;;;;5147424;27;20026;-76
2022/11/04 02:00:08;;;;;;;3.08;1.50;;;16.60;84.90;;;;;;5146305;27;20050;-75
2022/11/04 02:02:40;;;;;;;3.28;1.40;;;16.60;84.90;;;;;;5139784;27;20101;-76
2022/11/04 02:05:06;;;;;;;1.90;1.25;;;16.60;84.80;;;;;;5145467;27;20026;-75
2022/11/04 02:07:32;;;;;;;3.58;1.58;;;16.60;84.70;;;;;;5148018;27;20027;-77
2022/11/04 02:09:58;;;;;;;3.42;1.63;;;16.70;84.70;;;;;;5152979;27;20025;-78
2022/11/04 02:15:08;;;;;;;3.10;1.40;;;16.60;84.60;;;;;;5134978;27;20046;-75
2022/11/04 02:17:39;;;;;;;2.35;1.40;;;16.60;84.70;;;;;;5139090;27;20497;-76
2022/11/04 02:20:33;;;;;;;3.33;1.50;;;16.60;84.80;;;;;;5155321;27;20401;-77
2022/11/04 02:23:37;;;;;;;2.90;1.42;;;16.60;84.80;;;;;;5153352;27;20046;-77
2022/11/04 02:26:33;;;;;;;2.58;1.38;;;16.60;84.90;;;;;;5139927;27;20026;-75
2022/11/04 02:29:23;;;;;;;2.88;1.52;;;16.60;84.90;;;;;;5153790;27;20113;-75
2022/11/04 02:31:55;;;;;;;2.28;1.30;;;16.60;85.00;;;;;;5144266;27;20061;-75
2022/11/04 02:34:50;;;;;;;2.35;1.30;;;16.60;85.00;;;;;;5136051;27;20031;-76
2022/11/04 02:37:54;;;;;;;1.95;1.00;;;16.60;85.10;;;;;;5143036;27;20050;-76
2022/11/04 02:40:37;;;;;;;3.15;1.50;;;16.60;85.00;;;;;;5138558;27;20026;-75
2022/11/04 02:43:20;;;;;;;2.67;1.45;;;16.60;85.10;;;;;;5143056;27;20406;-76
2022/11/04 02:45:49;;;;;;;2.15;1.30;;;16.60;85.10;;;;;;5149738;27;20021;-76
2022/11/04 02:48:14;;;;;;;2.10;1.30;;;16.60;85.10;;;;;;5141967;27;20494;-76
2022/11/04 02:50:53;;;;;;;1.83;1.00;;;16.60;85.10;;;;;;5140153;27;20022;-76
2022/11/04 02:53:44;;;;;;;2.13;1.23;;;16.60;85.00;;;;;;5147466;27;20051;-76
2022/11/04 02:56:11;;;;;;;2.50;1.30;;;16.60;85.10;;;;;;5133938;27;20026;-74
2022/11/04 02:58:44;;;;;;;3.13;1.50;;;16.60;85.10;;;;;;5145317;27;20386;-77
2022/11/04 03:01:15;;;;;;;3.38;1.40;;;16.60;85.10;;;;;;5149655;27;20031;-74
2022/11/04 03:03:47;;;;;;;2.95;1.30;;;16.50;85.00;;;;;;5133411;27;20508;-76
2022/11/04 03:06:16;;;;;;;1.70;1.20;;;16.60;84.90;;;;;;5146248;27;20027;-76
2022/11/04 03:08:46;;;;;;;2.30;1.23;;;16.60;84.90;;;;;;5152731;27;20023;-76
2022/11/04 03:11:17;;;;;;;2.90;1.42;;;16.70;84.90;;;;;;5133231;27;20031;-77
2022/11/04 03:13:46;;;;;;;3.08;1.30;;;16.60;84.80;;;;;;5139244;27;20030;-76
2022/11/04 03:16:23;;;;;;;1.70;1.20;;;16.60;84.80;;;;;;5150307;27;20071;-75
2022/11/04 03:19:07;;;;;;;2.28;1.30;;;16.60;84.90;;;;;;5146890;27;20113;-76
2022/11/04 03:21:37;;;;;;;2.97;1.50;;;16.60;84.90;;;;;;5133309;27;20106;-77
2022/11/04 03:24:04;;;;;;;2.80;1.40;;;16.60;85.00;;;;;;5132894;27;20020;-76
2022/11/04 03:26:57;;;;;;;2.42;1.30;;;16.60;85.10;;;;;;5151358;27;20106;-76
2022/11/04 03:29:26;;;;;;;1.63;1.20;;;16.60;85.10;;;;;;5150966;27;20023;-76
2022/11/04 03:32:12;;;;;;;2.83;1.40;;;16.60;85.10;;;;;;5141700;27;20485;-76
2022/11/04 03:34:38;;;;;;;2.40;1.30;;;16.60;85.30;;;;;;5153866;27;20106;-76
2022/11/04 03:37:04;;;;;;;1.67;1.23;;;16.60;85.30;;;;;;5150627;27;20050;-77
2022/11/04 03:39:30;;;;;;;2.22;1.33;;;16.60;85.20;;;;;;5133198;27;20030;-75
2022/11/04 03:41:58;;;;;;;2.38;1.42;;;16.60;85.30;;;;;;5133940;27;20490;-74
2022/11/04 03:44:24;;;;;;;2.03;1.38;;;16.50;85.20;;;;;;5152272;27;20023;-76
2022/11/04 03:46:53;;;;;;;2.85;1.30;;;16.50;85.20;;;;;;5136106;27;20493;-73
2022/11/04 03:49:21;;;;;;;1.88;1.23;;;16.50;85.30;;;;;;5148774;27;20023;-76
2022/11/04 03:51:47;;;;;;;2.25;1.38;;;16.50;85.30;;;;;;5166050;27;20026;-78
2022/11/04 03:54:14;;;;;;;2.42;1.35;;;16.50;85.30;;;;;;5133730;27;20038;-75
2022/11/04 03:57:03;;;;;;;2.03;1.30;;;16.50;85.30;;;;;;5148681;27;20024;-75
2022/11/04 03:59:50;;;;;;;2.45;1.42;;;16.50;85.30;;;;;;5131705;27;20063;-75
2022/11/04 04:02:23;;;;;;;2.22;1.30;;;16.50;85.30;;;;;;5132593;27;20103;-76
2022/11/04 04:05:06;;;;;;;2.13;1.30;;;16.60;85.20;;;;;;5142615;27;20446;-76
2022/11/04 04:07:40;;;;;;;2.13;1.30;;;16.60;85.20;;;;;;5153613;27;20489;-75
2022/11/04 04:13:03;;;;;;;2.03;1.20;;;16.60;85.00;;;;;;5153032;27;20041;-76
2022/11/04 04:15:41;;;;;;;2.17;1.20;;;16.60;85.00;;;;;;5153456;27;20042;-75
2022/11/04 04:18:12;;;;;;;2.22;1.30;;;16.60;85.00;;;;;;5152211;27;20025;-75
2022/11/04 04:20:39;;;;;;;1.88;1.33;;;16.60;85.00;;;;;;5153494;27;20061;-76
2022/11/04 04:28:41;;;;;;;1.70;1.20;;;16.50;85.10;;;;;;5137227;27;20057;-75
2022/11/04 04:31:10;;;;;;;2.40;1.52;;;16.50;85.20;;;;;;5145464;27;20023;-75
2022/11/04 04:33:36;;;;;;;2.67;1.42;;;16.60;85.30;;;;;;5136277;27;20047;-77
2022/11/04 04:36:03;;;;;;;2.65;1.58;;;16.60;85.40;;;;;;5152513;27;20026;-75
2022/11/04 04:47:19;;;;;;;1.80;1.35;;;16.50;85.40;;;;;;5140128;27;20021;-75
2022/11/04 04:49:58;;;;;;;1.90;1.30;;;16.50;85.40;;;;;;5147861;27;20385;-76
2022/11/04 04:52:30;;;;;;;2.08;1.48;;;16.50;85.40;;;;;;5168484;27;20460;-75
2022/11/04 04:54:56;;;;;;;1.73;1.30;;;16.50;85.90;;;;;;5136099;27;20027;-75
2022/11/04 04:57:21;;;;;;;2.72;1.70;;;16.50;85.40;;;;;;5134963;27;20103;-75
2022/11/04 04:59:47;;;;;;;2.03;1.35;;;16.50;85.40;;;;;;5140905;27;20030;-76
2022/11/04 05:02:13;;;;;;;2.20;1.38;;;16.50;85.40;;;;;;5149144;27;20059;-75
2022/11/04 05:04:38;;;;;;;2.70;1.52;;;16.50;85.30;;;;;;5146137;27;20481;-75
2022/11/04 05:07:05;;;;;;;2.17;1.40;;;16.50;85.20;;;;;;5156709;27;20079;-75
2022/11/04 05:09:31;;;;;;;1.80;1.30;;;16.50;85.20;;;;;;5155257;27;20050;-76
2022/11/04 05:11:56;;;;;;;2.03;1.20;;;16.50;85.10;;;;;;5156481;27;20035;-76
2022/11/04 05:14:22;;;;;;;3.30;1.63;;;16.60;85.10;;;;;;5155225;27;20022;-76
2022/11/04 05:16:47;;;;;;;2.00;1.35;;;16.60;85.10;;;;;;5157063;27;20030;-75
2022/11/04 05:19:13;;;;;;;2.22;1.38;;;16.60;85.10;;;;;;5156803;27;20023;-76
2022/11/04 05:21:38;;;;;;;2.40;1.60;;;16.50;85.00;;;;;;5144540;27;20030;-76
2022/11/04 05:24:04;;;;;;;2.88;1.58;;;16.60;85.20;;;;;;5135062;27;20264;-75
2022/11/04 05:26:30;;;;;;;2.58;1.50;;;16.50;85.20;;;;;;5136024;27;20027;-75
2022/11/04 05:28:56;;;;;;;2.70;1.60;;;16.50;85.20;;;;;;5135504;27;20027;-75
2022/11/04 05:31:22;;;;;;;2.53;1.52;;;16.50;85.20;;;;;;5145673;27;20076;-76
2022/11/04 05:33:47;;;;;;;3.22;1.70;;;16.50;85.30;;;;;;5153764;27;20398;-74
2022/11/04 05:36:15;;;;;;;2.80;1.65;;;16.50;85.30;;;;;;5155410;27;20101;-75
2022/11/04 05:38:41;;;;;;;3.20;1.70;;;16.50;85.40;;;;;;5143059;27;20053;-75
2022/11/04 05:41:10;;;;;;;2.42;1.50;;;16.50;85.40;;;;;;5156431;27;20478;-74
2022/11/04 05:43:36;;;;;;;2.72;1.60;;;16.50;85.40;;;;;;5156127;27;20026;-75
2022/11/04 05:46:02;;;;;;;2.72;1.90;;;16.50;85.50;;;;;;5150532;27;20023;-76
2022/11/04 05:48:28;;;;;;;2.13;1.60;;;16.40;85.40;;;;;;5155586;27;20029;-76
2022/11/04 05:50:54;;;;;;;2.60;1.70;;;16.50;85.50;;;;;;5144732;27;20434;-76
2022/11/04 05:53:20;;;;;;;2.63;1.80;;;16.50;85.50;;;;;;5151097;27;20044;-77
2022/11/04 05:55:45;;;;;;;2.70;1.58;;;16.50;85.50;;;;;;5160869;27;20023;-75
2022/11/04 05:58:11;;;;;;;2.80;1.80;;;16.50;85.50;;;;;;5156228;27;20023;-77
2022/11/04 06:00:36;;;;;;;2.45;1.50;;;16.50;85.50;;;;;;5162649;27;20015;-82
2022/11/04 06:03:02;;;;;;;3.42;1.98;;;16.50;85.50;;;;;;5139282;27;20023;-73
2022/11/04 06:05:28;;;;;;;2.47;1.58;;;16.50;85.40;;;;;;5153178;27;20046;-72
2022/11/04 06:07:54;;;;;;;2.40;1.50;;;16.50;85.40;;;;;;5152042;27;20019;-72
2022/11/04 06:10:20;;;;;;;3.38;1.70;;;16.50;85.40;;;;;;5152123;27;20163;-78
2022/11/04 06:12:46;;;;;;;3.03;1.45;;;16.50;85.30;;;;;;5149385;27;20110;-75
2022/11/04 06:15:12;;;;;;;2.22;1.50;;;16.50;85.30;;;;;;5154654;27;20494;-82
2022/11/04 06:17:37;;;;;;;3.15;1.80;;;16.60;85.20;;;;;;5161126;27;20033;-78
2022/11/04 06:20:04;;;;;;;2.40;1.60;;;16.50;85.10;;;;;;5175762;27;20034;-77
2022/11/04 06:22:29;;;;;;;3.88;1.83;;;16.50;85.10;;;;;;5160306;27;20102;-77
2022/11/04 06:24:55;;;;;;;2.75;1.75;;;16.50;85.20;;;;;;5135183;27;20055;-77
2022/11/04 06:27:21;;;;;;;2.42;1.60;;;16.60;85.20;;;;;;5149374;27;20027;-79
2022/11/04 06:29:46;;;;;;;2.92;1.90;;;16.50;85.30;;;;;;5153892;27;20018;-77
2022/11/04 06:32:15;;;;;;;2.97;1.73;;;16.50;85.30;;;;;;5132719;27;20037;-75
2022/11/04 06:34:41;;;;;;;3.75;1.95;;;16.50;85.30;;;;;;5133775;27;20031;-77
2022/11/04 06:37:07;;;;;;;3.65;1.80;;;16.50;85.40;;;;;;5154107;27;20102;-78
2022/11/04 06:39:33;;;;;;;3.28;1.90;;;16.50;85.40;;;;;;5154328;27;20056;-75
2022/11/04 06:41:58;;;;;;;3.30;1.65;;;16.50;85.40;;;;;;5152664;27;20018;-75
2022/11/04 06:44:24;;;;;;;3.47;1.52;;;16.50;85.40;;;;;;5152361;27;20057;-75
2022/11/04 06:46:50;;;;;;;2.97;1.48;;;16.50;85.40;;;;;;5151711;27;20061;-75
2022/11/04 06:49:18;;;;;;;4.03;1.85;;;16.50;85.50;;;;;;5152682;27;20027;-75
2022/11/04 06:51:44;;;;;;;3.63;1.70;;;16.50;85.60;;;;;;5152447;27;20118;-77
2022/11/04 06:54:10;;;;;;;3.00;1.70;;;16.50;85.60;;;;;;5152351;27;20481;-76
2022/11/04 06:56:36;;;;;;;3.30;1.60;;;16.50;85.60;;;;;;5153668;27;20023;-77
2022/11/04 06:59:02;;;;;;;2.70;1.58;;;16.50;85.60;;;;;;5153048;27;20022;-76
2022/11/04 07:01:31;;;;;;;2.70;1.60;;;16.50;85.70;;;;;;5153886;27;20114;-78
2022/11/04 07:03:59;;;;;;;2.33;1.60;;;16.50;85.80;;;;;;5151877;27;20046;-75
2022/11/04 07:06:27;;;;;;;2.92;1.63;;;16.50;85.80;;;;;;5152527;27;20051;-76
2022/11/04 07:08:57;;;;;;;2.75;1.70;;;16.50;85.80;;;;;;5152284;27;20027;-76
2022/11/04 07:11:23;;;;;;;2.45;1.50;;;16.50;85.70;;;;;;5153694;27;20033;-76
2022/11/04 07:13:49;;;;;;;2.80;1.38;;;16.50;85.70;;;;;;5152024;27;20063;-77
2022/11/04 07:16:15;;;;;;;3.00;1.67;;;16.50;85.80;;;;;;5153603;27;20023;-75
2022/11/04 07:18:41;;;;;;;2.35;1.35;;;16.50;85.50;;;;;;5153651;27;20420;-77
2022/11/04 07:21:07;;;;;;;2.40;1.50;;;16.50;85.50;;;;;;5152224;27;20405;-77
2022/11/04 07:23:33;;;;;;;3.95;1.70;;;16.50;85.40;;;;;;5153121;27;20403;-75
2022/11/04 07:26:03;;;;;;;2.42;1.60;;;16.50;85.50;;;;;;5153402;27;20019;-77
2022/11/04 07:28:29;;;;;;;3.20;1.70;;;16.50;85.60;;;;;;5153444;27;20018;-76
2022/11/04 07:30:56;;;;;;;2.85;1.60;;;16.50;85.60;;;;;;5153341;27;20458;-77
2022/11/04 07:33:22;;;;;;;2.03;1.48;;;16.50;85.70;;;;;;5151549;27;20030;-78
2022/11/04 07:35:48;;;;;;;2.28;1.35;;;16.50;85.70;;;;;;5152077;27;20023;-75
2022/11/04 07:38:13;;;;;;;3.28;1.60;;;16.50;85.80;;;;;;5153141;27;20097;-75
2022/11/04 07:40:39;;;;;;;2.25;1.60;;;16.50;85.80;;;;;;5151898;27;20026;-76
2022/11/04 07:43:05;;;;;;;2.92;1.52;;;16.40;85.80;;;;;;5152641;27;20042;-75
2022/11/04 07:45:32;;;;;;;2.15;1.38;;;16.50;85.80;;;;;;5151959;27;20019;-78
2022/11/04 07:47:57;;;;;;;4.45;1.60;;;16.40;85.80;;;;;;5152973;27;20042;-76
2022/11/04 07:50:23;;;;;;;3.65;1.63;;;16.40;85.80;;;;;;5153072;27;20470;-75
2022/11/04 07:52:49;;;;;;;2.50;1.48;;;16.50;85.90;;;;;;5152826;27;20452;-75
2022/11/04 07:55:18;;;;;;;3.55;1.50;;;16.50;85.90;;;;;;5152807;27;20026;-77
2022/11/04 07:57:45;;;;;;;2.70;1.67;;;16.50;86.00;;;;;;5152784;27;20033;-75
2022/11/04 08:00:11;;;;;;;2.42;1.50;;;16.40;85.90;;;;;;5152901;27;20071;-76
2022/11/04 08:02:36;;;;;;;2.00;1.48;;;16.50;85.90;;;;;;5152550;27;20023;-76
2022/11/04 08:05:05;;;;;;;2.90;1.30;;;16.40;85.90;;;;;;5152661;27;20546;-78
2022/11/04 08:07:30;;;;;;;2.20;1.40;;;16.50;86.10;;;;;;5151633;27;20046;-77
2022/11/04 08:09:56;;;;;;;2.70;1.40;;;16.50;86.10;;;;;;5151527;27;20469;-76
2022/11/04 08:12:23;;;;;;;1.77;1.20;;;16.50;85.90;;;;;;5151218;27;20459;-76
2022/11/04 08:14:49;;;;;;;2.80;1.40;;;16.50;85.90;;;;;;5152588;27;20072;-76
2022/11/04 08:17:15;;;;;;;2.20;1.30;;;16.50;85.90;;;;;;5152782;27;20026;-76
2022/11/04 08:19:40;;;;;;;3.08;1.65;;;16.50;85.70;;;;;;5152851;27;20065;-75
2022/11/04 08:22:07;;;;;;;2.28;1.30;;;16.50;85.70;;;;;;5151146;27;20133;-76
2022/11/04 08:24:32;;;;;;;1.98;1.30;;;16.50;85.60;;;;;;5152375;27;20022;-76
2022/11/04 08:26:58;;;;;;;2.03;1.40;;;16.50;85.70;;;;;;5152706;27;20023;-76
2022/11/04 08:29:24;;;;;;;2.13;1.33;;;16.50;85.80;;;;;;5151307;27;20025;-78
2022/11/04 08:31:49;;;;;;;2.47;1.52;;;16.50;85.80;;;;;;5152541;27;20105;-76
2022/11/04 08:34:17;;;;;;;2.42;1.35;;;16.50;85.90;;;;;;5152295;27;20030;-75
2022/11/04 08:36:43;;;;;;;3.33;1.30;;;16.50;85.90;;;;;;5151417;27;20103;-77
2022/11/04 08:39:09;;;;;;;2.30;1.40;;;16.50;86.00;;;;;;5152455;27;20037;-76
2022/11/04 08:41:36;;;;;;;3.20;1.30;;;16.40;86.00;;;;;;5152629;27;20027;-76
2022/11/04 08:44:03;;;;;;;2.13;1.40;;;16.50;86.10;;;;;;5152074;27;20390;-76
2022/11/04 08:46:33;;;;;;;2.00;1.17;;;16.40;86.00;;;;;;5151294;27;20022;-77
2022/11/04 08:48:59;;;;;;;2.08;1.30;;;16.40;86.10;;;;;;5152352;27;20490;-76
2022/11/04 08:51:26;;;;;;;1.50;1.17;;;16.50;86.10;;;;;;5135748;27;20064;-77
2022/11/04 08:53:51;;;;;;;2.50;1.48;;;16.50;86.20;;;;;;5129870;27;20140;-77
2022/11/04 08:56:21;;;;;;;1.95;1.30;;;16.40;86.10;;;;;;5130349;28;20058;-76
2022/11/04 08:58:47;;;;;;;1.75;1.20;;;16.40;86.10;;;;;;5129842;28;20030;-76
2022/11/04 09:01:13;;;;;;;2.10;1.33;;;16.50;86.20;;;;;;5129260;28;20027;-76
2022/11/04 09:03:39;;;;;;;2.75;1.38;;;16.40;86.20;;;;;;5131341;28;20019;-76
2022/11/04 09:06:12;;;;;;;1.90;1.20;;;16.40;86.20;;;;;;5130418;28;20027;-76
2022/11/04 09:08:38;;;;;;;1.70;1.15;;;16.50;86.30;;;;;;5131858;27;20047;-75
2022/11/04 09:11:09;;;;;;;1.98;1.30;;;16.50;86.30;;;;;;5133854;27;20508;-76
2022/11/04 09:13:35;;;;;;;1.88;1.20;;;16.50;86.10;;;;;;5133580;27;20032;-76
2022/11/04 09:16:01;;;;;;;1.70;1.10;;;16.50;86.00;;;;;;5135161;27;20450;-76
2022/11/04 09:18:27;;;;;;;1.83;1.00;;;16.50;85.90;;;;;;5134023;27;20024;-78
2022/11/04 09:20:53;;;;;;;2.08;1.10;;;16.60;85.80;;;;;;5135112;27;20493;-76
2022/11/04 09:23:18;;;;;;;2.20;1.30;;;16.60;85.60;;;;;;5133375;27;20551;-76
2022/11/04 09:25:44;;;;;;;3.15;1.30;;;16.60;85.50;;;;;;5135065;27;20028;-76
2022/11/04 09:28:09;;;;;;;2.25;1.20;;;16.70;85.20;;;;;;5135006;27;20019;-77
2022/11/04 09:30:36;;;;;;;2.47;1.20;;;16.80;85.00;;;;;;5133603;27;20080;-77
2022/11/04 09:33:02;;;;;;;2.13;1.10;;;16.80;84.70;;;;;;5133366;27;20067;-76
2022/11/04 09:35:27;;;;;;;2.22;0.95;;;16.90;84.40;;;;;;5133599;27;20502;-75
2022/11/04 09:37:53;;;;;;;2.03;1.20;;;16.90;84.20;;;;;;5134908;27;20098;-76
2022/11/04 09:40:22;;;;;;;1.70;1.00;;;17.00;84.10;;;;;;5134695;27;20112;-76
2022/11/04 09:43:04;;;;;;;2.17;1.20;;;17.00;83.80;;;;;;5134603;27;20494;-76
2022/11/04 09:45:31;;;;;;;2.03;1.20;;;17.10;83.70;;;;;;5133524;27;20054;-76
2022/11/04 09:48:22;;;;;;;1.55;1.00;;;17.10;83.60;;;;;;5134502;27;20054;-78
2022/11/04 09:50:51;;;;;;;0.98;0.90;;;17.20;83.60;;;;;;5125838;27;20035;-75
2022/11/04 09:53:19;;;;;;;1.10;0.85;;;17.20;83.50;;;;;;5132828;27;20123;-75
2022/11/04 09:56:01;;;;;;;1.55;1.00;;;17.20;83.50;;;;;;5134610;27;20023;-77
2022/11/04 09:58:32;;;;;;;1.83;1.10;;;17.30;83.40;;;;;;5133373;27;20030;-78
2022/11/04 10:01:04;;;;;;;2.22;1.05;;;17.20;83.40;;;;;;5134386;27;20050;-77
2022/11/04 10:03:40;;;;;;;1.30;1.00;;;17.20;84.10;;;;;;5134208;27;20021;-76
2022/11/04 10:06:18;;;;;;;3.97;1.40;;;17.10;83.70;;;;;;5134301;27;20432;-77
2022/11/04 10:09:07;;;;;;;1.75;1.10;;;17.10;84.00;;;;;;5132971;27;20051;-76
2022/11/04 10:11:38;;;;;;;1.83;1.10;;;17.10;84.20;;;;;;5134124;27;20114;-75
2022/11/04 10:14:17;;;;;;;1.25;0.98;;;17.10;84.30;;;;;;5133743;27;20079;-76
2022/11/04 10:17:07;;;;;;;2.20;1.05;;;17.00;84.40;;;;;;5134112;27;20019;-77
2022/11/04 10:20:11;;;;;;;1.90;1.13;;;17.00;84.40;;;;;;5133986;27;20029;-77
2022/11/04 10:22:57;;;;;;;2.35;1.13;;;17.00;84.60;;;;;;5133848;27;20435;-76
2022/11/04 10:25:29;;;;;;;1.08;0.80;;;17.00;84.60;;;;;;5133980;27;20546;-76
2022/11/04 10:27:57;;;;;;;2.08;1.13;;;17.00;84.40;;;;;;5133737;27;20031;-77
2022/11/04 10:30:27;;;;;;;1.80;1.00;;;17.10;84.40;;;;;;5134038;27;20356;-76
2022/11/04 10:33:08;;;;;;;1.33;0.90;;;17.10;84.50;;;;;;5133758;27;20027;-78
2022/11/04 10:35:44;;;;;;;2.90;1.20;;;17.10;84.20;;;;;;5132388;27;20524;-75
2022/11/04 10:38:17;;;;;;;1.38;0.90;;;17.10;84.00;;;;;;5133650;27;20322;-75
2022/11/04 10:40:47;;;;;;;1.58;0.93;;;17.20;84.00;;;;;;5132330;27;20502;-76
2022/11/04 10:43:19;;;;;;;1.15;0.90;;;17.20;84.00;;;;;;5134273;27;20027;-77
2022/11/04 10:46:12;;;;;;;1.25;1.00;;;17.10;84.00;;;;;;5132717;27;20023;-76
2022/11/04 10:48:48;;;;;;;1.73;1.00;;;17.10;84.00;;;;;;5133522;27;20015;-78
2022/11/04 10:51:20;;;;;;;2.45;1.10;;;17.10;84.10;;;;;;5133382;27;20020;-76
2022/11/04 10:53:49;;;;;;;1.92;1.00;;;17.10;84.10;;;;;;5131704;27;20447;-76
2022/11/04 10:56:29;;;;;;;1.67;1.10;;;17.10;84.20;;;;;;5131905;27;20028;-78
2022/11/04 10:58:59;;;;;;;3.28;1.02;;;17.10;84.20;;;;;;5133369;27;20243;-76
2022/11/04 11:01:31;;;;;;;1.13;0.90;;;17.10;84.30;;;;;;5133260;27;21978;-75
2022/11/04 11:03:58;;;;;;;1.20;0.95;;;17.10;84.40;;;;;;5131496;27;20019;-75
2022/11/04 11:06:35;;;;;;;1.85;1.10;;;17.00;84.50;;;;;;5133167;27;20015;-76
2022/11/04 11:09:27;;;;;;;1.20;1.00;;;17.00;84.60;;;;;;5131777;27;20019;-75
2022/11/04 11:11:54;;;;;;;1.55;0.90;;;17.00;84.60;;;;;;5131398;27;20417;-76
2022/11/04 11:14:34;;;;;;;1.83;1.10;;;17.10;84.40;;;;;;5131231;27;20478;-75
2022/11/04 11:17:20;;;;;;;1.83;0.90;;;17.10;84.30;;;;;;5133034;27;20023;-76
2022/11/04 11:19:58;;;;;;;1.30;1.02;;;17.20;84.20;;;;;;5132859;27;20023;-75
2022/11/04 11:22:33;;;;;;;2.47;1.30;;;17.20;84.00;;;;;;5132804;27;20537;-75
2022/11/04 11:25:25;;;;;;;2.33;1.00;;;17.20;83.80;;;;;;5131097;27;20406;-77
2022/11/04 11:27:55;;;;;;;1.58;1.10;;;17.30;83.60;;;;;;5132610;27;20015;-77
2022/11/04 11:30:32;;;;;;;2.25;1.08;;;17.30;83.40;;;;;;5131434;27;20015;-75
2022/11/04 11:33:02;;;;;;;1.13;0.90;;;17.30;83.30;;;;;;5130927;27;20075;-77
2022/11/04 11:35:40;;;;;;;1.48;0.90;;;17.30;83.30;;;;;;5131112;27;20444;-76
2022/11/04 11:38:17;;;;;;;1.20;0.98;;;17.40;83.30;;;;;;5132620;27;20027;-77
2022/11/04 11:40:44;;;;;;;1.10;0.95;;;17.30;83.40;;;;;;5131106;27;20030;-75
2022/11/04 11:43:27;;;;;;;1.13;1.00;;;17.30;83.50;;;;;;5130848;27;20023;-77
2022/11/04 11:45:56;;;;;;;1.48;0.90;;;17.30;83.60;;;;;;5132367;27;20019;-77
2022/11/04 11:48:49;;;;;;;1.33;0.90;;;17.30;83.70;;;;;;5131194;27;20558;-76
2022/11/04 11:51:26;;;;;;;1.15;1.00;;;17.30;83.80;;;;;;5132195;27;20106;-77
2022/11/04 11:54:32;;;;;;;1.33;0.90;;;17.30;83.80;;;;;;5130704;27;20110;-75
2022/11/04 11:57:02;;;;;;;1.90;1.08;;;17.30;83.70;;;;;;5130871;27;20027;-76
2022/11/04 11:59:43;;;;;;;1.10;1.00;;;17.30;83.70;;;;;;5132304;27;20024;-76
2022/11/04 12:02:34;;;;;;;1.55;1.00;;;17.30;83.70;;;;;;5130611;27;20114;-76
2022/11/04 12:05:00;;;;;;;1.50;0.90;;;17.30;83.70;;;;;;5132002;28;20034;-74
2022/11/04 12:07:53;;;;;;;1.15;0.80;;;17.30;83.70;;;;;;5132143;28;20027;-75
2022/11/04 12:10:40;;;;;;;1.83;1.00;;;17.30;83.70;;;;;;5130921;28;20280;-75
2022/11/04 12:13:15;;;;;;;1.55;0.90;;;17.40;83.60;;;;;;5131691;28;20031;-77
2022/11/04 12:15:59;;;;;;;1.23;0.90;;;17.40;83.70;;;;;;5132052;28;20024;-77
2022/11/04 12:18:46;;;;;;;1.30;1.00;;;17.40;83.60;;;;;;5132318;28;20482;-76
2022/11/04 12:21:13;;;;;;;1.55;0.93;;;17.40;83.60;;;;;;5130692;28;20119;-75
2022/11/04 12:23:55;;;;;;;2.10;1.00;;;17.40;83.60;;;;;;5130424;28;20030;-75
2022/11/04 12:26:48;;;;;;;1.20;1.00;;;17.40;83.40;;;;;;5130701;28;20073;-77
2022/11/04 12:29:20;;;;;;;1.20;0.80;;;17.50;83.30;;;;;;5130753;28;20486;-75
2022/11/04 12:32:19;;;;;;;1.70;1.02;;;17.50;83.20;;;;;;5130711;28;20070;-76
2022/11/04 12:35:01;;;;;;;1.65;0.90;;;17.60;83.20;;;;;;5131847;27;20030;-77
2022/11/04 12:38:00;;;;;;;2.60;1.20;;;17.50;83.10;;;;;;5130720;28;20072;-76
2022/11/04 12:40:29;;;;;;;1.25;1.00;;;17.50;83.10;;;;;;5099668;28;20078;-77
2022/11/04 12:43:19;;;;;;;1.23;1.00;;;17.50;83.20;;;;;;5130096;27;20038;-76
2022/11/04 12:46:08;;;;;;;0.80;0.80;;;17.40;83.30;;;;;;5135813;27;20019;-76
2022/11/04 12:49:02;;;;;;;1.25;0.98;;;17.40;83.50;;;;;;5135915;27;20047;-77
2022/11/04 12:52:09;;;;;;;1.38;1.00;;;17.40;83.70;;;;;;5135775;27;20030;-77
2022/11/04 12:55:04;;;;;;;1.35;0.90;;;17.30;83.80;;;;;;5104620;27;20035;-76
2022/11/04 12:57:52;;;;;;;1.40;0.98;;;17.30;84.00;;;;;;5135635;27;20052;-76
2022/11/04 13:00:23;;;;;;;2.00;1.00;;;17.30;84.20;;;;;;5134472;27;20485;-76
2022/11/04 13:03:09;;;;;;;1.25;0.93;;;17.20;84.20;;;;;;5133976;27;20031;-77
2022/11/04 13:05:57;;;;;;;1.20;0.80;;;17.20;84.40;;;;;;5134985;27;20521;-76
2022/11/04 13:08:44;;;;;;;1.90;1.10;;;17.20;84.50;;;;;;5135420;27;20080;-76
2022/11/04 13:11:24;;;;;;;1.27;1.00;;;17.20;84.50;;;;;;5135191;27;20102;-76
2022/11/04 13:14:12;;;;;;;1.27;1.00;;;17.20;84.50;;;;;;5135192;27;20027;-75
2022/11/04 13:16:41;;;;;;;1.08;0.98;;;17.20;84.50;;;;;;5134164;27;20015;-77
2022/11/04 13:19:34;;;;;;;1.90;1.00;;;17.20;84.60;;;;;;5133922;27;20023;-76
2022/11/04 13:22:09;;;;;;;1.45;1.00;;;17.20;84.60;;;;;;5091868;27;20028;-76
2022/11/04 13:24:39;;;;;;;2.05;1.00;;;17.20;84.50;;;;;;5133640;27;20083;-76
2022/11/04 13:27:29;;;;;;;1.25;0.90;;;17.20;84.50;;;;;;5139720;27;20015;-76
2022/11/04 13:30:14;;;;;;;1.38;1.00;;;17.20;84.30;;;;;;5160787;27;20029;-77
2022/11/04 13:32:57;;;;;;;2.00;0.90;;;17.20;84.30;;;;;;5152790;27;20030;-77
2022/11/04 13:35:37;;;;;;;1.55;0.90;;;17.20;84.30;;;;;;5156514;27;20031;-73
2022/11/04 13:38:15;;;;;;;1.90;1.25;;;17.20;84.30;;;;;;5157834;27;20500;-73
2022/11/04 13:40:49;;;;;;;1.38;0.90;;;17.20;84.40;;;;;;5148395;27;20037;-73
2022/11/04 13:43:38;;;;;;;1.60;1.00;;;17.20;84.50;;;;;;5151069;27;20359;-74
2022/11/04 13:46:17;;;;;;;1.20;1.05;;;17.20;84.60;;;;;;5154007;27;20418;-75
2022/11/04 13:49:05;;;;;;;1.35;0.90;;;17.10;84.70;;;;;;5143371;27;20394;-73